sensor_id;sensor_type;location;lat;lon;timestamp;pressure;altitude;pressure_sealevel;temperature;humidity
9189;BME280;34313;50.780;6.084;2022-09-03T00:05:31;98985.22;;;19.15;37.44
9189;BME280;34313;50.780;6.084;2022-09-03T00:10:42;98991.13;;;19.01;37.67
9189;BME280;34313;50.780;6.084;2022-09-03T00:13:15;98981.31;;;18.83;38.07
9189;BME280;34313;50.780;6.084;2022-09-03T00:15:42;98990.44;;;18.81;37.97
9189;BME280;34313;50.780;6.084;2022-09-03T00:18:20;98986.50;;;18.85;37.81
9189;BME280;34313;50.780;6.084;2022-09-03T00:20:53;98981.59;;;18.80;38.10
9189;BME280;34313;50.780;6.084;2022-09-03T00:23:25;98972.59;;;18.81;38.13
9189;BME280;34313;50.780;6.084;2022-09-03T00:31:24;98983.84;;;18.85;38.07
9189;BME280;34313;50.780;6.084;2022-09-03T00:33:57;98978.09;;;18.80;38.13
9189;BME280;34313;50.780;6.084;2022-09-03T00:36:34;98984.72;;;18.76;38.00
9189;BME280;34313;50.780;6.084;2022-09-03T00:39:08;98988.69;;;18.71;38.31
9189;BME280;34313;50.780;6.084;2022-09-03T00:41:43;98981.50;;;18.72;38.35
9189;BME280;34313;50.780;6.084;2022-09-03T00:44:44;98974.13;;;18.66;38.45
9189;BME280;34313;50.780;6.084;2022-09-03T01:04:41;98982.75;;;18.42;39.35
9189;BME280;34313;50.780;6.084;2022-09-03T01:09:50;98982.47;;;18.45;39.32
9189;BME280;34313;50.780;6.084;2022-09-03T01:12:32;98973.84;;;18.33;39.58
9189;BME280;34313;50.780;6.084;2022-09-03T01:15:13;98981.31;;;18.29;39.63
9189;BME280;34313;50.780;6.084;2022-09-03T01:20:35;98970.34;;;18.14;40.00
9189;BME280;34313;50.780;6.084;2022-09-03T01:23:22;98978.94;;;18.08;40.10
9189;BME280;34313;50.780;6.084;2022-09-03T01:26:26;98981.50;;;18.00;40.49
9189;BME280;34313;50.780;6.084;2022-09-03T01:29:13;98987.19;;;17.87;40.68
9189;BME280;34313;50.780;6.084;2022-09-03T01:42:16;98977.59;;;17.94;40.87
9189;BME280;34313;50.780;6.084;2022-09-03T01:47:48;98971.84;;;17.99;41.16
9189;BME280;34313;50.780;6.084;2022-09-03T01:50:38;98979.69;;;18.01;41.06
9189;BME280;34313;50.780;6.084;2022-09-03T01:56:07;98965.59;;;18.08;40.94
9189;BME280;34313;50.780;6.084;2022-09-03T01:58:40;98970.34;;;18.14;40.76
9189;BME280;34313;50.780;6.084;2022-09-03T02:01:36;98968.59;;;18.23;40.64
9189;BME280;34313;50.780;6.084;2022-09-03T02:04:17;98961.28;;;18.25;40.67
9189;BME280;34313;50.780;6.084;2022-09-03T02:06:45;98966.84;;;18.32;40.67
9189;BME280;34313;50.780;6.084;2022-09-03T02:09:12;98971.72;;;18.37;40.50
9189;BME280;34313;50.780;6.084;2022-09-03T02:11:38;98968.28;;;18.44;40.27
9189;BME280;34313;50.780;6.084;2022-09-03T02:14:04;98963.50;;;18.48;40.40
9189;BME280;34313;50.780;6.084;2022-09-03T02:16:31;98966.06;;;18.58;40.11
9189;BME280;34313;50.780;6.084;2022-09-03T02:19:04;98959.78;;;18.67;39.95
9189;BME280;34313;50.780;6.084;2022-09-03T02:21:34;98957.50;;;18.72;39.75
9189;BME280;34313;50.780;6.084;2022-09-03T02:24:03;98954.22;;;18.78;39.65
9189;BME280;34313;50.780;6.084;2022-09-03T02:26:29;98951.41;;;18.80;39.61
9189;BME280;34313;50.780;6.084;2022-09-03T02:28:55;98954.47;;;18.85;39.64
9189;BME280;34313;50.780;6.084;2022-09-03T02:31:22;98960.50;;;18.87;39.45
9189;BME280;34313;50.780;6.084;2022-09-03T02:33:48;98948.50;;;18.91;39.24
9189;BME280;34313;50.780;6.084;2022-09-03T02:36:18;98950.63;;;18.87;39.38
9189;BME280;34313;50.780;6.084;2022-09-03T02:38:46;98954.78;;;18.82;39.42
9189;BME280;34313;50.780;6.084;2022-09-03T02:41:11;98952.09;;;18.82;39.38
9189;BME280;34313;50.780;6.084;2022-09-03T02:43:46;98946.78;;;18.82;39.53
9189;BME280;34313;50.780;6.084;2022-09-03T02:46:22;98958.72;;;18.78;39.46
9189;BME280;34313;50.780;6.084;2022-09-03T02:48:51;98947.72;;;18.81;39.60
9189;BME280;34313;50.780;6.084;2022-09-03T02:51:17;98953.00;;;18.73;39.75
9189;BME280;34313;50.780;6.084;2022-09-03T02:53:42;98948.34;;;18.75;39.73
9189;BME280;34313;50.780;6.084;2022-09-03T02:56:08;98951.31;;;18.71;39.85
9189;BME280;34313;50.780;6.084;2022-09-03T02:58:33;98948.28;;;18.66;39.99
9189;BME280;34313;50.780;6.084;2022-09-03T03:00:59;98951.84;;;18.75;39.92
9189;BME280;34313;50.780;6.084;2022-09-03T03:03:25;98954.69;;;18.74;40.04
9189;BME280;34313;50.780;6.084;2022-09-03T03:05:52;98953.00;;;18.73;40.15
9189;BME280;34313;50.780;6.084;2022-09-03T03:08:22;98942.41;;;18.63;40.15
9189;BME280;34313;50.780;6.084;2022-09-03T03:10:51;98941.47;;;18.72;40.12
9189;BME280;34313;50.780;6.084;2022-09-03T03:13:17;98948.28;;;18.66;40.07
9189;BME280;34313;50.780;6.084;2022-09-03T03:15:43;98943.56;;;18.60;40.39
9189;BME280;34313;50.780;6.084;2022-09-03T03:18:09;98941.44;;;18.64;40.52
9189;BME280;34313;50.780;6.084;2022-09-03T03:20:38;98943.72;;;18.59;40.67
9189;BME280;34313;50.780;6.084;2022-09-03T03:23:04;98943.09;;;18.65;40.64
9189;BME280;34313;50.780;6.084;2022-09-03T03:25:33;98951.78;;;18.67;40.71
9189;BME280;34313;50.780;6.084;2022-09-03T03:27:59;98947.38;;;18.58;40.80
9189;BME280;34313;50.780;6.084;2022-09-03T03:30:25;98958.34;;;18.55;40.77
9189;BME280;34313;50.780;6.084;2022-09-03T03:32:52;98952.19;;;18.54;40.93
9189;BME280;34313;50.780;6.084;2022-09-03T03:35:18;98951.22;;;18.55;41.05
9189;BME280;34313;50.780;6.084;2022-09-03T03:37:43;98950.97;;;18.48;41.13
9189;BME280;34313;50.780;6.084;2022-09-03T03:40:09;98948.75;;;18.44;41.29
9189;BME280;34313;50.780;6.084;2022-09-03T03:42:35;98950.44;;;18.45;41.31
9189;BME280;34313;50.780;6.084;2022-09-03T03:45:00;98954.09;;;18.44;41.21
9189;BME280;34313;50.780;6.084;2022-09-03T03:47:28;98959.91;;;18.39;41.39
9189;BME280;34313;50.780;6.084;2022-09-03T03:49:55;98951.97;;;18.29;41.41
9189;BME280;34313;50.780;6.084;2022-09-03T03:52:21;98949.16;;;18.31;41.50
9189;BME280;34313;50.780;6.084;2022-09-03T03:54:46;98944.19;;;18.36;41.38
9189;BME280;34313;50.780;6.084;2022-09-03T03:57:14;98953.19;;;18.35;41.51
9189;BME280;34313;50.780;6.084;2022-09-03T03:59:39;98953.19;;;18.35;41.55
9189;BME280;34313;50.780;6.084;2022-09-03T04:02:05;98941.53;;;18.36;41.43
9189;BME280;34313;50.780;6.084;2022-09-03T04:04:31;98943.97;;;18.29;41.63
9189;BME280;34313;50.780;6.084;2022-09-03T04:06:57;98946.78;;;18.28;41.82
9189;BME280;34313;50.780;6.084;2022-09-03T04:09:23;98936.03;;;18.20;41.94
9189;BME280;34313;50.780;6.084;2022-09-03T04:11:48;98943.59;;;18.24;41.97
9189;BME280;34313;50.780;6.084;2022-09-03T04:14:15;98942.13;;;18.30;42.14
9189;BME280;34313;50.780;6.084;2022-09-03T04:16:42;98946.09;;;18.26;42.21
9189;BME280;34313;50.780;6.084;2022-09-03T04:19:11;98946.00;;;18.18;42.36
9189;BME280;34313;50.780;6.084;2022-09-03T04:21:37;98940.22;;;18.22;42.32
9189;BME280;34313;50.780;6.084;2022-09-03T04:24:03;98945.19;;;18.17;42.42
9189;BME280;34313;50.780;6.084;2022-09-03T04:26:31;98941.53;;;18.18;42.48
9189;BME280;34313;50.780;6.084;2022-09-03T04:29:05;98942.56;;;18.07;42.71
9189;BME280;34313;50.780;6.084;2022-09-03T04:31:31;98950.50;;;17.99;43.09
9189;BME280;34313;50.780;6.084;2022-09-03T04:33:57;98941.16;;;17.85;43.42
9189;BME280;34313;50.780;6.084;2022-09-03T04:36:25;98945.56;;;17.76;43.65
9189;BME280;34313;50.780;6.084;2022-09-03T04:38:52;98946.28;;;17.69;44.03
9189;BME280;34313;50.780;6.084;2022-09-03T04:41:23;98941.81;;;17.69;43.91
9189;BME280;34313;50.780;6.084;2022-09-03T04:43:50;98942.53;;;17.62;44.19
9189;BME280;34313;50.780;6.084;2022-09-03T04:46:16;98950.88;;;17.49;44.56
9189;BME280;34313;50.780;6.084;2022-09-03T04:48:41;98949.38;;;17.46;44.68
9189;BME280;34313;50.780;6.084;2022-09-03T04:51:13;98945.69;;;17.47;44.78
9189;BME280;34313;50.780;6.084;2022-09-03T04:53:42;98951.63;;;17.41;44.95
9189;BME280;34313;50.780;6.084;2022-09-03T04:56:19;98954.97;;;17.43;44.83
9189;BME280;34313;50.780;6.084;2022-09-03T04:58:45;98952.06;;;17.36;45.19
9189;BME280;34313;50.780;6.084;2022-09-03T05:01:15;98955.09;;;17.51;44.81
9189;BME280;34313;50.780;6.084;2022-09-03T05:03:41;98960.84;;;17.47;44.82
9189;BME280;34313;50.780;6.084;2022-09-03T05:06:06;98954.97;;;17.43;44.74
9189;BME280;34313;50.780;6.084;2022-09-03T05:08:33;98954.16;;;17.43;44.79
9189;BME280;34313;50.780;6.084;2022-09-03T05:11:04;98953.53;;;17.49;44.71
9189;BME280;34313;50.780;6.084;2022-09-03T05:13:30;98960.25;;;17.53;44.67
9189;BME280;34313;50.780;6.084;2022-09-03T05:16:04;98952.50;;;17.60;44.45
9189;BME280;34313;50.780;6.084;2022-09-03T05:18:30;98953.63;;;18.12;43.80
9189;BME280;34313;50.780;6.084;2022-09-03T05:21:05;98941.13;;;19.11;41.43
9189;BME280;34313;50.780;6.084;2022-09-03T05:23:31;98953.25;;;20.17;39.12
9189;BME280;34313;50.780;6.084;2022-09-03T05:25:58;98942.09;;;20.87;37.35
9189;BME280;34313;50.780;6.084;2022-09-03T05:28:28;98946.50;;;21.36;36.71
9189;BME280;34313;50.780;6.084;2022-09-03T05:31:21;98953.31;;;22.49;34.78
9189;BME280;34313;50.780;6.084;2022-09-03T05:33:51;98955.41;;;23.23;33.37
9189;BME280;34313;50.780;6.084;2022-09-03T05:36:19;98958.53;;;23.56;32.60
9189;BME280;34313;50.780;6.084;2022-09-03T05:38:46;98958.25;;;22.83;33.33
9189;BME280;34313;50.780;6.084;2022-09-03T05:41:12;98963.81;;;21.81;35.03
9189;BME280;34313;50.780;6.084;2022-09-03T05:43:39;98969.09;;;21.58;35.60
9189;BME280;34313;50.780;6.084;2022-09-03T05:46:11;98972.66;;;21.34;36.09
9189;BME280;34313;50.780;6.084;2022-09-03T05:48:38;98968.38;;;20.75;37.26
9189;BME280;34313;50.780;6.084;2022-09-03T05:51:06;98982.75;;;20.50;37.90
9189;BME280;34313;50.780;6.084;2022-09-03T05:53:35;98971.78;;;20.10;38.47
9189;BME280;34313;50.780;6.084;2022-09-03T05:56:04;98967.63;;;20.16;38.67
9189;BME280;34313;50.780;6.084;2022-09-03T05:58:42;98970.28;;;20.08;38.89
9189;BME280;34313;50.780;6.084;2022-09-03T06:03:45;98972.41;;;19.88;39.15
9189;BME280;34313;50.780;6.084;2022-09-03T06:06:11;98981.63;;;19.93;39.21
9189;BME280;34313;50.780;6.084;2022-09-03T06:08:41;98978.94;;;19.93;39.08
9189;BME280;34313;50.780;6.084;2022-09-03T06:11:09;98994.34;;;19.99;39.60
9189;BME280;34313;50.780;6.084;2022-09-03T06:13:35;98990.00;;;20.07;39.38
9189;BME280;34313;50.780;6.084;2022-09-03T06:16:02;98992.72;;;20.15;38.98
9189;BME280;34313;50.780;6.084;2022-09-03T06:18:29;98985.31;;;20.09;39.33
9189;BME280;34313;50.780;6.084;2022-09-03T06:20:55;98995.19;;;20.08;39.36
9189;BME280;34313;50.780;6.084;2022-09-03T06:23:22;98988.34;;;20.14;39.12
9189;BME280;34313;50.780;6.084;2022-09-03T06:25:47;98998.09;;;20.31;39.02
9189;BME280;34313;50.780;6.084;2022-09-03T06:28:23;98988.91;;;20.50;38.65
9189;BME280;34313;50.780;6.084;2022-09-03T06:30:49;98993.84;;;20.80;38.55
9189;BME280;34313;50.780;6.084;2022-09-03T06:33:14;98979.25;;;20.90;37.74
9189;BME280;34313;50.780;6.084;2022-09-03T06:35:42;98978.56;;;21.05;37.54
9189;BME280;34313;50.780;6.084;2022-09-03T06:38:08;98983.72;;;21.23;37.80
9189;BME280;34313;50.780;6.084;2022-09-03T06:40:36;98983.03;;;21.37;37.82
9189;BME280;34313;50.780;6.084;2022-09-03T06:43:01;98987.22;;;21.40;37.40
9189;BME280;34313;50.780;6.084;2022-09-03T06:45:29;98987.38;;;21.55;37.29
9189;BME280;34313;50.780;6.084;2022-09-03T06:47:54;98986.00;;;21.67;37.00
9189;BME280;34313;50.780;6.084;2022-09-03T06:50:20;98991.28;;;21.83;36.54
9189;BME280;34313;50.780;6.084;2022-09-03T06:52:53;98987.41;;;21.86;36.47
9189;BME280;34313;50.780;6.084;2022-09-03T06:55:22;98987.53;;;22.24;36.13
9189;BME280;34313;50.780;6.084;2022-09-03T06:57:47;98996.13;;;22.51;35.53
9189;BME280;34313;50.780;6.084;2022-09-03T07:00:14;98992.66;;;22.88;34.92
9189;BME280;34313;50.780;6.084;2022-09-03T07:02:39;98998.13;;;23.18;34.73
9189;BME280;34313;50.780;6.084;2022-09-03T07:05:06;99002.31;;;23.35;34.47
9189;BME280;34313;50.780;6.084;2022-09-03T07:07:32;99002.84;;;23.46;34.05
9189;BME280;34313;50.780;6.084;2022-09-03T07:09:57;98999.25;;;23.68;33.69
9189;BME280;34313;50.780;6.084;2022-09-03T07:12:22;99010.75;;;23.62;33.85
9189;BME280;34313;50.780;6.084;2022-09-03T07:14:48;99004.25;;;23.71;33.82
9189;BME280;34313;50.780;6.084;2022-09-03T07:17:14;99003.16;;;23.95;33.48
9189;BME280;34313;50.780;6.084;2022-09-03T07:19:40;99004.75;;;24.26;33.36
9189;BME280;34313;50.780;6.084;2022-09-03T07:22:05;99000.28;;;24.33;33.08
9189;BME280;34313;50.780;6.084;2022-09-03T07:24:31;99007.03;;;24.44;33.04
9189;BME280;34313;50.780;6.084;2022-09-03T07:26:56;99003.22;;;24.53;33.20
9189;BME280;34313;50.780;6.084;2022-09-03T07:29:22;99005.84;;;24.68;33.23
9189;BME280;34313;50.780;6.084;2022-09-03T07:31:48;99007.94;;;24.73;33.08
9189;BME280;34313;50.780;6.084;2022-09-03T07:34:17;99011.97;;;24.84;32.67
9189;BME280;34313;50.780;6.084;2022-09-03T07:36:45;98994.94;;;25.05;32.54
9189;BME280;34313;50.780;6.084;2022-09-03T07:39:12;99000.97;;;25.07;32.52
9189;BME280;34313;50.780;6.084;2022-09-03T07:41:39;98996.06;;;24.89;32.89
9189;BME280;34313;50.780;6.084;2022-09-03T07:44:10;99000.31;;;24.77;33.04
9189;BME280;34313;50.780;6.084;2022-09-03T07:46:37;98998.25;;;24.79;33.09
9189;BME280;34313;50.780;6.084;2022-09-03T07:49:03;99003.28;;;25.10;32.61
9189;BME280;34313;50.780;6.084;2022-09-03T07:51:33;99008.31;;;25.76;31.64
9189;BME280;34313;50.780;6.084;2022-09-03T07:54:00;99004.41;;;28.33;28.42
9189;BME280;34313;50.780;6.084;2022-09-03T07:56:27;98990.44;;;30.78;25.20
9189;BME280;34313;50.780;6.084;2022-09-03T07:58:55;99005.16;;;33.15;22.54
9189;BME280;34313;50.780;6.084;2022-09-03T08:01:23;99001.56;;;33.87;21.37
9189;BME280;34313;50.780;6.084;2022-09-03T08:03:50;98991.19;;;35.31;20.24
9189;BME280;34313;50.780;6.084;2022-09-03T08:06:20;99001.63;;;36.70;18.98
9189;BME280;34313;50.780;6.084;2022-09-03T08:08:46;99004.03;;;37.54;18.27
9189;BME280;34313;50.780;6.084;2022-09-03T08:11:13;98995.38;;;38.47;17.74
9189;BME280;34313;50.780;6.084;2022-09-03T08:13:40;99000.16;;;37.55;18.45
9189;BME280;34313;50.780;6.084;2022-09-03T08:16:07;98999.19;;;35.95;20.20
9189;BME280;34313;50.780;6.084;2022-09-03T08:18:34;98995.31;;;34.41;21.87
9189;BME280;34313;50.780;6.084;2022-09-03T08:21:03;99000.38;;;31.90;25.50
9189;BME280;34313;50.780;6.084;2022-09-03T08:23:28;99003.47;;;30.45;27.51
9189;BME280;34313;50.780;6.084;2022-09-03T08:26:00;99007.28;;;29.52;28.74
9189;BME280;34313;50.780;6.084;2022-09-03T08:28:26;99007.00;;;29.16;29.39
9189;BME280;34313;50.780;6.084;2022-09-03T08:30:52;99015.84;;;29.05;30.06
9189;BME280;34313;50.780;6.084;2022-09-03T08:33:18;99012.94;;;28.75;30.65
9189;BME280;34313;50.780;6.084;2022-09-03T08:36:06;99017.22;;;28.57;30.75
9189;BME280;34313;50.780;6.084;2022-09-03T08:38:32;99017.13;;;28.32;31.45
9189;BME280;34313;50.780;6.084;2022-09-03T08:44:08;99013.69;;;28.12;32.02
9189;BME280;34313;50.780;6.084;2022-09-03T08:46:49;99021.91;;;27.91;32.52
9189;BME280;34313;50.780;6.084;2022-09-03T08:49:22;99025.72;;;27.50;33.47
9189;BME280;34313;50.780;6.084;2022-09-03T08:51:52;99031.75;;;27.19;34.65
9189;BME280;34313;50.780;6.084;2022-09-03T08:54:20;99030.72;;;27.27;34.35
9189;BME280;34313;50.780;6.084;2022-09-03T08:56:49;99027.59;;;27.10;35.26
9189;BME280;34313;50.780;6.084;2022-09-03T08:59:14;99029.59;;;26.61;36.52
9189;BME280;34313;50.780;6.084;2022-09-03T09:06:52;99040.78;;;25.90;38.57
9189;BME280;34313;50.780;6.084;2022-09-03T09:09:45;99033.19;;;26.07;38.08
9189;BME280;34313;50.780;6.084;2022-09-03T09:12:34;99028.00;;;26.67;37.02
9189;BME280;34313;50.780;6.084;2022-09-03T09:15:29;99034.03;;;26.69;36.60
9189;BME280;34313;50.780;6.084;2022-09-03T09:23:20;99038.75;;;28.84;32.15
9189;BME280;34313;50.780;6.084;2022-09-03T09:25:50;99033.22;;;29.22;31.99
9189;BME280;34313;50.780;6.084;2022-09-03T09:28:23;99030.94;;;29.26;31.59
9189;BME280;34313;50.780;6.084;2022-09-03T09:30:52;99040.78;;;29.64;31.32
9189;BME280;34313;50.780;6.084;2022-09-03T09:33:19;99036.97;;;29.90;31.49
9189;BME280;34313;50.780;6.084;2022-09-03T09:35:45;99036.75;;;29.92;31.44
9189;BME280;34313;50.780;6.084;2022-09-03T09:38:12;99041.44;;;29.85;31.69
9189;BME280;34313;50.780;6.084;2022-09-03T09:40:43;99037.50;;;29.81;31.89
9189;BME280;34313;50.780;6.084;2022-09-03T09:43:17;99030.94;;;30.07;31.62
9189;BME280;34313;50.780;6.084;2022-09-03T09:45:48;99034.47;;;29.70;32.09
9189;BME280;34313;50.780;6.084;2022-09-03T09:51:10;99029.19;;;31.27;29.80
9189;BME280;34313;50.780;6.084;2022-09-03T09:53:37;99024.19;;;31.95;28.73
9189;BME280;34313;50.780;6.084;2022-09-03T09:56:04;99036.41;;;32.33;28.03
9189;BME280;34313;50.780;6.084;2022-09-03T09:58:31;99031.03;;;32.95;27.28
9189;BME280;34313;50.780;6.084;2022-09-03T10:01:21;99032.31;;;33.61;26.25
9189;BME280;34313;50.780;6.084;2022-09-03T10:03:55;99037.28;;;34.25;25.62
9189;BME280;34313;50.780;6.084;2022-09-03T10:06:30;99029.44;;;34.12;25.73
9189;BME280;34313;50.780;6.084;2022-09-03T10:09:23;99031.09;;;33.51;26.03
9189;BME280;34313;50.780;6.084;2022-09-03T10:14:52;99031.25;;;32.48;27.71
9189;BME280;34313;50.780;6.084;2022-09-03T10:17:28;99031.69;;;32.57;27.69
9189;BME280;34313;50.780;6.084;2022-09-03T10:20:21;99032.91;;;32.49;27.71
9189;BME280;34313;50.780;6.084;2022-09-03T10:28:33;99034.13;;;33.33;26.66
9189;BME280;34313;50.780;6.084;2022-09-03T10:31:51;99028.50;;;34.01;25.70
9189;BME280;34313;50.780;6.084;2022-09-03T10:34:13;99024.44;;;34.03;25.79
9189;BME280;34313;50.780;6.084;2022-09-03T10:36:56;99027.34;;;34.41;25.30
9189;BME280;34313;50.780;6.084;2022-09-03T10:42:34;99028.34;;;32.84;27.24
9189;BME280;34313;50.780;6.084;2022-09-03T10:51:02;99022.41;;;30.94;29.94
9189;BME280;34313;50.780;6.084;2022-09-03T10:53:43;99008.06;;;30.75;30.31
9189;BME280;34313;50.780;6.084;2022-09-03T10:56:18;99012.88;;;30.61;31.04
9189;BME280;34313;50.780;6.084;2022-09-03T11:07:18;99010.00;;;28.76;33.94
9189;BME280;34313;50.780;6.084;2022-09-03T11:09:50;99010.44;;;28.73;33.77
9189;BME280;34313;50.780;6.084;2022-09-03T11:12:27;99005.56;;;28.57;34.33
9189;BME280;34313;50.780;6.084;2022-09-03T11:15:01;99003.81;;;28.31;34.76
9189;BME280;34313;50.780;6.084;2022-09-03T11:17:35;99006.31;;;28.25;34.67
9189;BME280;34313;50.780;6.084;2022-09-03T11:20:17;99009.59;;;28.41;34.23
9189;BME280;34313;50.780;6.084;2022-09-03T11:22:44;99007.66;;;28.48;34.31
9189;BME280;34313;50.780;6.084;2022-09-03T11:25:11;99008.44;;;28.62;34.20
9189;BME280;34313;50.780;6.084;2022-09-03T11:30:14;99006.97;;;28.91;33.50
9189;BME280;34313;50.780;6.084;2022-09-03T11:35:26;99000.50;;;28.92;33.31
9189;BME280;34313;50.780;6.084;2022-09-03T11:38:17;99006.28;;;28.32;34.51
9189;BME280;34313;50.780;6.084;2022-09-03T11:40:53;98993.94;;;27.98;34.94
9189;BME280;34313;50.780;6.084;2022-09-03T11:51:16;98994.53;;;28.45;34.11
9189;BME280;34313;50.780;6.084;2022-09-03T11:53:53;98986.84;;;28.42;34.10
9189;BME280;34313;50.780;6.084;2022-09-03T11:56:19;98980.69;;;28.66;33.41
9189;BME280;34313;50.780;6.084;2022-09-03T11:58:45;98985.13;;;28.86;33.78
9189;BME280;34313;50.780;6.084;2022-09-03T12:01:13;98984.47;;;28.20;34.36
9189;BME280;34313;50.780;6.084;2022-09-03T12:04:01;98979.81;;;28.34;34.23
9189;BME280;34313;50.780;6.084;2022-09-03T12:18:02;98994.72;;;28.50;34.06
9189;BME280;34313;50.780;6.084;2022-09-03T12:20:45;98984.16;;;28.74;33.97
9189;BME280;34313;50.780;6.084;2022-09-03T12:23:34;98989.41;;;28.37;33.95
9189;BME280;34313;50.780;6.084;2022-09-03T12:26:10;98983.97;;;27.98;34.37
9189;BME280;34313;50.780;6.084;2022-09-03T12:28:41;98986.84;;;28.42;34.11
9189;BME280;34313;50.780;6.084;2022-09-03T12:31:27;98985.75;;;29.07;33.35
9189;BME280;34313;50.780;6.084;2022-09-03T12:34:07;98983.75;;;29.46;32.64
9189;BME280;34313;50.780;6.084;2022-09-03T12:36:42;98982.50;;;29.85;31.92
9189;BME280;34313;50.780;6.084;2022-09-03T12:41:57;98984.53;;;30.20;31.10
9189;BME280;34313;50.780;6.084;2022-09-03T12:44:45;98983.88;;;30.25;30.82
9189;BME280;34313;50.780;6.084;2022-09-03T12:47:13;98981.47;;;30.35;30.80
9189;BME280;34313;50.780;6.084;2022-09-03T12:49:44;98980.91;;;30.26;30.77
9189;BME280;34313;50.780;6.084;2022-09-03T12:52:13;98977.56;;;30.12;30.99
9189;BME280;34313;50.780;6.084;2022-09-03T12:54:53;98980.13;;;29.89;31.19
9189;BME280;34313;50.780;6.084;2022-09-03T12:57:24;98979.25;;;29.58;31.70
9189;BME280;34313;50.780;6.084;2022-09-03T12:59:54;98984.00;;;29.19;32.25
9189;BME280;34313;50.780;6.084;2022-09-03T13:02:26;98993.19;;;28.93;33.23
9189;BME280;34313;50.780;6.084;2022-09-03T13:04:53;98990.56;;;28.54;33.73
9189;BME280;34313;50.780;6.084;2022-09-03T13:07:32;98989.69;;;28.54;33.64
9189;BME280;34313;50.780;6.084;2022-09-03T13:10:06;98992.72;;;28.39;34.30
9189;BME280;34313;50.780;6.084;2022-09-03T13:12:45;98982.50;;;27.89;34.87
9189;BME280;34313;50.780;6.084;2022-09-03T13:15:32;98990.41;;;27.90;34.32
9189;BME280;34313;50.780;6.084;2022-09-03T13:21:02;98996.53;;;27.72;34.98
9189;BME280;34313;50.780;6.084;2022-09-03T13:29:28;99000.78;;;28.84;33.10
9189;BME280;34313;50.780;6.084;2022-09-03T13:32:14;98993.69;;;29.52;31.95
9189;BME280;34313;50.780;6.084;2022-09-03T13:34:51;98993.56;;;30.32;30.90
9189;BME280;34313;50.780;6.084;2022-09-03T13:37:36;98990.50;;;30.59;30.52
9189;BME280;34313;50.780;6.084;2022-09-03T13:40:18;98989.41;;;30.00;30.74
9189;BME280;34313;50.780;6.084;2022-09-03T13:42:55;98994.38;;;30.21;30.40
9189;BME280;34313;50.780;6.084;2022-09-03T13:45:49;98996.06;;;30.04;30.87
9189;BME280;34313;50.780;6.084;2022-09-03T13:48:21;98998.22;;;29.39;31.79
9189;BME280;34313;50.780;6.084;2022-09-03T13:51:17;98997.78;;;29.42;31.63
9189;BME280;34313;50.780;6.084;2022-09-03T13:58:49;99001.38;;;29.11;32.47
9189;BME280;34313;50.780;6.084;2022-09-03T14:01:41;99006.03;;;29.04;32.67
9189;BME280;34313;50.780;6.084;2022-09-03T14:04:27;99008.22;;;28.63;33.07
9189;BME280;34313;50.780;6.084;2022-09-03T14:06:59;99011.47;;;28.40;33.58
9189;BME280;34313;50.780;6.084;2022-09-03T14:09:53;99006.66;;;27.90;34.32
9189;BME280;34313;50.780;6.084;2022-09-03T14:12:28;99000.63;;;28.02;34.13
9189;BME280;34313;50.780;6.084;2022-09-03T14:21:00;99014.66;;;27.72;35.26
9189;BME280;34313;50.780;6.084;2022-09-03T14:23:44;99018.66;;;27.56;36.84
9189;BME280;34313;50.780;6.084;2022-09-03T14:26:24;99025.75;;;27.37;39.93
9189;BME280;34313;50.780;6.084;2022-09-03T14:40:51;99034.94;;;25.93;47.98
9189;BME280;34313;50.780;6.084;2022-09-03T14:49:14;99037.31;;;25.67;46.72
9189;BME280;34313;50.780;6.084;2022-09-03T14:57:48;99039.94;;;25.89;45.90
9189;BME280;34313;50.780;6.084;2022-09-03T15:00:21;99026.09;;;25.99;45.41
9189;BME280;34313;50.780;6.084;2022-09-03T15:06:01;99031.75;;;26.11;44.75
9189;BME280;34313;50.780;6.084;2022-09-03T15:11:26;99016.47;;;26.38;40.86
9189;BME280;34313;50.780;6.084;2022-09-03T15:22:16;99022.28;;;26.41;42.71
9189;BME280;34313;50.780;6.084;2022-09-03T15:30:08;99030.72;;;27.13;41.02
9189;BME280;34313;50.780;6.084;2022-09-03T15:41:05;99036.94;;;27.61;39.06
9189;BME280;34313;50.780;6.084;2022-09-03T15:43:32;99030.69;;;27.67;38.63
9189;BME280;34313;50.780;6.084;2022-09-03T15:46:03;99029.50;;;27.49;39.84
9189;BME280;34313;50.780;6.084;2022-09-03T15:48:49;99033.44;;;27.27;40.43
9189;BME280;34313;50.780;6.084;2022-09-03T15:53:57;99031.13;;;27.10;40.87
9189;BME280;34313;50.780;6.084;2022-09-03T16:02:00;99039.88;;;26.86;38.75
9189;BME280;34313;50.780;6.084;2022-09-03T16:07:32;99041.09;;;26.63;39.31
9189;BME280;34313;50.780;6.084;2022-09-03T16:10:31;99031.88;;;26.57;38.96
9189;BME280;34313;50.780;6.084;2022-09-03T16:15:50;99030.50;;;26.62;38.82
9189;BME280;34313;50.780;6.084;2022-09-03T16:19:02;99033.41;;;26.73;38.96
9189;BME280;34313;50.780;6.084;2022-09-03T16:24:30;99026.91;;;26.54;39.76
9189;BME280;34313;50.780;6.084;2022-09-03T16:29:38;99037.91;;;26.46;40.54
9189;BME280;34313;50.780;6.084;2022-09-03T16:32:15;99044.28;;;26.25;41.55
9189;BME280;34313;50.780;6.084;2022-09-03T16:40:21;99038.22;;;26.16;42.98
9189;BME280;34313;50.780;6.084;2022-09-03T16:45:46;99050.34;;;25.92;40.69
9189;BME280;34313;50.780;6.084;2022-09-03T16:48:43;99052.66;;;25.60;41.15
9189;BME280;34313;50.780;6.084;2022-09-03T16:51:43;99043.81;;;25.45;42.85
9189;BME280;34313;50.780;6.084;2022-09-03T16:54:31;99049.34;;;25.30;43.02
9189;BME280;34313;50.780;6.084;2022-09-03T16:59:50;99046.16;;;25.05;43.84
9189;BME280;34313;50.780;6.084;2022-09-03T17:05:19;99046.31;;;24.97;44.70
9189;BME280;34313;50.780;6.084;2022-09-03T17:08:07;99057.88;;;24.90;44.88
9189;BME280;34313;50.780;6.084;2022-09-03T17:10:46;99061.34;;;24.84;45.11
9189;BME280;34313;50.780;6.084;2022-09-03T17:24:42;99077.31;;;24.64;45.44
9189;BME280;34313;50.780;6.084;2022-09-03T17:35:35;99080.72;;;24.07;47.18
9189;BME280;34313;50.780;6.084;2022-09-03T17:41:18;99085.31;;;23.91;49.52
9189;BME280;34313;50.780;6.084;2022-09-03T17:49:20;99088.25;;;23.44;50.84
9189;BME280;34313;50.780;6.084;2022-09-03T17:52:27;99087.50;;;23.35;51.15
9189;BME280;34313;50.780;6.084;2022-09-03T17:54:58;99090.81;;;23.22;51.54